McHenry, IL (60051)

8:25 AM CDT en Octubre 25, 2014 (GMT -0500)
Glacier Ridge - West Side | Change Station
CLOSE
Current Station
Estación meteorológica personal
Location: McHenry, IL
Altura: 925 ft
Estaciones meteorológicas cercanas

Alt 925 ft 42.35 °N, 88.33 °W | Updated 1 minute ago

Despejado
Despejado
54.1 ° F
Sensación térmica 54.1 ° F
N
1.6
Viento Variable Viento desde OSO
Gusts 1.6 mph

Hoy
Alta -- | Baja -- ° F
--% Posibilidad de precipitaciones
Ayer
Alta -- | Baja -- ° F
Precip. -- pul
7:17 AM 5:55 PM
Creciente, 3% visible
Presión 29.90 pul
Visibilidad 4.0 Millas
Nubes Despejado
Punto de rocío 50 ° F
Humedad 86%
Precipitaciones 0.00 pul
Espesor de la nieve No disponible.
UV 0 de una escala de 12
Polen 1.60 de una escala de 12
Ozono Buena
PM2.5 Moderada
Flu Activity No Activity
METAR KUGN 251255Z 27006KT 4SM BR CLR 13/12 A2989 RMK AO2 SLP123 T01280117

More Conditions Fewer Conditions

Presión 29.90 pul
Visibilidad 4.0 Millas
Nubes Despejado
Punto de rocío 50 ° F
Humedad 86%
Precipitaciones 0.00 pul
Espesor de la nieve No disponible.
UV 0 de una escala de 12
Polen 1.60 de una escala de 12
Ozono Buena
PM2.5 Moderada
Flu Activity No Activity
METAR KUGN 251255Z 27006KT 4SM BR CLR 13/12 A2989 RMK AO2 SLP123 T01280117

More Conditions Fewer Conditions

10-Day Weather Forecast

Almanac

Astronomía

Oct. 25, 2014 Salida Puesta
Hora real 7:17 AM CDT 5:55 PM CDT
Crepúsculo civil 6:49 AM CDT 6:24 PM CDT
Crepúsculo náutico 6:16 AM CDT 6:57 PM CDT
Crepúsculo astronómico 5:43 AM CDT 7:30 PM CDT
Luna 8:57 AM CDT 7:17 PM CDT
Horas de luz 11h 35m
Horas de luz
10h 38m
Tomorrow will be 2m 38s shorter.
Creciente, 3% of the Moon is Illuminated
Hoy
Creciente
Oct 30
Cuarto creciente
Nov 6
Luna llena
Nov 14
Cuarto menguante
Nov 22
Nueva

Extremos de hoy

Máximos del estado Bajos del estado

Community

WunderPhotos

Upload Photos

1,764,829 ¡fotos cargadas!

Nearby

Calidad del aire

  Calidad del aire Índice AQ Contaminante
Ayer Moderada
PM2.5
Ayer Buena
OZONE
Real Moderada
PM2.5
Real Buena
OZONE
Sábado Buena
PM2.5
Domingo Buena
PM2.5
Lunes Moderada
PM2.5
Martes Buena
PM2.5
Miércoles Buena
PM2.5

Grosos de nieve

Estación Profundido Altura
No tenemos constancia de nieve nueva.

Actividad de terremotos

Ciudad Distance Mag. Tiempo y dato
No hay informes recientes de la actividad sísmica.
Magnitud mínima muestra es 2,5.

Temperaturas de aguas costeras

Lugar Temperatura
Sin partes meteorológicos de las estaciones

Estaciones meteorológicas cercanas